Terminal Aerodrome Forecast
Issued by NWS

Home | Current Version | Previous Version | Text Only | Print | Product List | Glossary On
Versions: 1 2 3 4 5 6 7 8 9 10 11 12 13 14 15 16 17 18 19 20 21 22 23 24 25 26 27 28
000
FTUS42 KJAX 311823 AAA
TAFCRG
TAF AMD
KCRG 311823Z 3118/0118 VRB04KT P6SM SCT020 BKN035
     FM312000 11007KT P6SM VCSH BKN050
     FM010100 VRB04KT P6SM SCT040 BKN100
     FM011500 22006KT P6SM VCSH SCT025 BKN050=

USA.gov is the U.S. government's official web portal to all federal, state and local government web resources and services.